Time;durP1;ratioP1;P1;durP2;ratioP2;P2;SDS_P1;SDS_P2;PMS_P1;PMS_P2;Temp;Humidity;BMP_temperature;BMP_pressure;BME280_temperature;BME280_humidity;BME280_pressure;Samples;Min_cycle;Max_cycle;Signal;HPM_P1;HPM_P2
2023/02/08 00:01:08;;;;;;;16.80;12.87;;;;;;;;;;4970920;28;20659;-87
2023/02/08 00:03:33;;;;;;;15.00;13.17;;;;;;;;;;4977510;28;20232;-85
2023/02/08 00:05:59;;;;;;;15.80;12.30;;;;;;;;;;4972183;28;20229;-85
2023/02/08 00:08:24;;;;;;;17.67;13.03;;;;;;;;;;4972609;28;20582;-82
2023/02/08 00:10:50;;;;;;;17.93;14.27;;;;;;;;;;4965537;28;20229;-83
2023/02/08 00:13:17;;;;;;;19.93;14.63;;;;;;;;;;4935836;28;20287;-84
2023/02/08 00:15:44;;;;;;;17.50;14.73;;;;;;;;;;4945426;28;20233;-85
2023/02/08 00:18:12;;;;;;;17.43;14.27;;;;;;;;;;4993170;28;20284;-85
2023/02/08 00:20:40;;;;;;;15.70;13.77;;;;;;;;;;4985065;28;20699;-85
2023/02/08 00:23:08;;;;;;;18.10;14.00;;;;;;;;;;5007222;28;20229;-87
2023/02/08 00:25:36;;;;;;;18.33;13.63;;;;;;;;;;4972292;28;21087;-84
2023/02/08 00:28:04;;;;;;;22.63;15.37;;;;;;;;;;4943771;28;20625;-85
2023/02/08 00:30:30;;;;;;;21.67;14.90;;;;;;;;;;4951777;28;20281;-85
2023/02/08 00:32:55;;;;;;;21.47;13.53;;;;;;;;;;4962172;28;20361;-84
2023/02/08 00:35:21;;;;;;;16.50;13.77;;;;;;;;;;4974238;28;20260;-86
2023/02/08 00:37:46;;;;;;;19.33;14.13;;;;;;;;;;4944394;28;20225;-86
2023/02/08 00:40:12;;;;;;;19.30;14.97;;;;;;;;;;4980915;28;20598;-84
2023/02/08 00:42:40;;;;;;;17.63;13.80;;;;;;;;;;4981959;28;20736;-86
2023/02/08 00:45:10;;;;;;;21.70;14.37;;;;;;;;;;4982275;28;20272;-86
2023/02/08 00:47:36;;;;;;;17.70;13.97;;;;;;;;;;4976749;28;20248;-86
2023/02/08 00:50:04;;;;;;;19.50;13.67;;;;;;;;;;4987011;28;20228;-87
2023/02/08 00:52:29;;;;;;;16.87;13.80;;;;;;;;;;4968956;28;20226;-87
2023/02/08 00:54:55;;;;;;;17.97;13.63;;;;;;;;;;4950808;28;20227;-85
2023/02/08 00:57:23;;;;;;;18.57;14.03;;;;;;;;;;4960750;28;20224;-83
2023/02/08 00:59:49;;;;;;;18.27;14.17;;;;;;;;;;4987834;28;20222;-85
2023/02/08 01:02:14;;;;;;;19.37;14.63;;;;;;;;;;4990899;28;20565;-87
2023/02/08 01:04:40;;;;;;;18.73;14.57;;;;;;;;;;4945579;28;20245;-86
2023/02/08 01:07:05;;;;;;;20.33;15.60;;;;;;;;;;5003695;28;20276;-86
2023/02/08 01:09:31;;;;;;;20.33;14.77;;;;;;;;;;4984596;28;20308;-84
2023/02/08 01:11:59;;;;;;;17.90;14.47;;;;;;;;;;4984123;28;21056;-87
2023/02/08 01:14:25;;;;;;;20.40;15.87;;;;;;;;;;4972198;28;20232;-84
2023/02/08 01:16:51;;;;;;;19.00;15.20;;;;;;;;;;4968357;28;20225;-87
2023/02/08 01:19:16;;;;;;;21.23;15.40;;;;;;;;;;4976569;28;20804;-86
2023/02/08 01:21:44;;;;;;;25.10;15.83;;;;;;;;;;4945890;28;20292;-83
2023/02/08 01:24:13;;;;;;;23.87;15.87;;;;;;;;;;4984105;28;20229;-84
2023/02/08 01:26:38;;;;;;;18.97;14.60;;;;;;;;;;4975700;28;20308;-86
2023/02/08 01:29:04;;;;;;;22.00;15.30;;;;;;;;;;4991243;28;20229;-85
2023/02/08 01:31:36;;;;;;;22.23;16.63;;;;;;;;;;4978812;28;20268;-84
2023/02/08 01:34:02;;;;;;;22.63;17.03;;;;;;;;;;4975756;28;20280;-87
2023/02/08 01:36:30;;;;;;;23.83;15.00;;;;;;;;;;4965286;28;20273;-87
2023/02/08 01:38:55;;;;;;;23.13;17.40;;;;;;;;;;4973976;28;20237;-87
2023/02/08 01:41:28;;;;;;;21.83;16.17;;;;;;;;;;4975403;28;20260;-85
2023/02/08 01:44:10;;;;;;;22.30;17.80;;;;;;;;;;4971640;28;20226;-82
2023/02/08 01:46:40;;;;;;;25.20;17.53;;;;;;;;;;5018820;28;20285;-85
2023/02/08 01:49:16;;;;;;;19.53;16.23;;;;;;;;;;4999125;28;20240;-85
2023/02/08 01:51:48;;;;;;;21.90;16.90;;;;;;;;;;5003117;28;20288;-83
2023/02/08 01:54:14;;;;;;;26.43;17.23;;;;;;;;;;5018439;28;20230;-82
2023/02/08 01:56:42;;;;;;;20.90;17.40;;;;;;;;;;5011515;28;20225;-84
2023/02/08 01:59:10;;;;;;;27.93;18.37;;;;;;;;;;4965323;28;20221;-84
2023/02/08 02:01:38;;;;;;;26.87;19.53;;;;;;;;;;4970635;28;20238;-82
2023/02/08 02:04:05;;;;;;;27.70;19.63;;;;;;;;;;4965254;28;20465;-85
2023/02/08 02:06:39;;;;;;;28.43;18.57;;;;;;;;;;4974353;28;20241;-86
2023/02/08 02:09:24;;;;;;;28.33;19.53;;;;;;;;;;4992569;28;20249;-84
2023/02/08 02:11:49;;;;;;;26.43;18.60;;;;;;;;;;4989570;28;20262;-86
2023/02/08 02:14:17;;;;;;;31.03;21.60;;;;;;;;;;4951304;28;20267;-85
2023/02/08 02:16:47;;;;;;;27.17;19.27;;;;;;;;;;4989285;28;20251;-84
2023/02/08 02:19:32;;;;;;;28.90;21.13;;;;;;;;;;4996143;28;20228;-85
2023/02/08 02:22:04;;;;;;;29.17;19.83;;;;;;;;;;4973453;28;20332;-84
2023/02/08 02:24:50;;;;;;;28.87;21.63;;;;;;;;;;4978556;28;20217;-85
2023/02/08 02:27:24;;;;;;;28.57;20.40;;;;;;;;;;4994219;28;20230;-86
2023/02/08 02:30:09;;;;;;;26.83;19.80;;;;;;;;;;4977664;28;20229;-84
2023/02/08 02:32:43;;;;;;;32.30;20.43;;;;;;;;;;4978064;28;20321;-84
2023/02/08 02:35:18;;;;;;;29.33;19.43;;;;;;;;;;5004216;28;20248;-83
2023/02/08 02:37:57;;;;;;;28.07;20.37;;;;;;;;;;4982299;28;20257;-85
2023/02/08 02:40:28;;;;;;;34.40;21.43;;;;;;;;;;4962270;28;20365;-85
2023/02/08 02:43:40;;;;;;;24.83;19.40;;;;;;;;;;5008559;28;20296;-87
2023/02/08 02:46:23;;;;;;;29.50;19.17;;;;;;;;;;4975877;28;20311;-85
2023/02/08 02:49:00;;;;;;;31.20;21.10;;;;;;;;;;5023546;28;20256;-85
2023/02/08 02:52:03;;;;;;;30.63;20.13;;;;;;;;;;4977557;28;20233;-84
2023/02/08 02:54:34;;;;;;;27.00;18.43;;;;;;;;;;4991812;28;20698;-85
2023/02/08 02:57:02;;;;;;;28.87;19.97;;;;;;;;;;4965744;28;20227;-84
2023/02/08 02:59:31;;;;;;;25.87;18.80;;;;;;;;;;4955450;28;20221;-86
2023/02/08 03:01:57;;;;;;;27.60;19.90;;;;;;;;;;5005207;28;20604;-86
2023/02/08 03:04:31;;;;;;;26.50;19.27;;;;;;;;;;4980840;28;20217;-86
2023/02/08 03:07:17;;;;;;;29.33;20.27;;;;;;;;;;5007511;28;20648;-85
2023/02/08 03:09:55;;;;;;;29.33;20.40;;;;;;;;;;5008873;28;20229;-84
2023/02/08 03:12:46;;;;;;;26.90;19.57;;;;;;;;;;4981007;28;20710;-84
2023/02/08 03:15:14;;;;;;;27.23;18.97;;;;;;;;;;5001730;28;20774;-85
2023/02/08 03:17:47;;;;;;;28.03;19.13;;;;;;;;;;4992961;28;20316;-86
2023/02/08 03:20:22;;;;;;;27.70;18.97;;;;;;;;;;4975432;28;20218;-84
2023/02/08 03:22:59;;;;;;;29.60;19.83;;;;;;;;;;4977070;28;20233;-86
2023/02/08 03:26:03;;;;;;;26.47;18.00;;;;;;;;;;5008653;28;20225;-86
2023/02/08 03:28:43;;;;;;;28.77;19.93;;;;;;;;;;4983768;28;20284;-85
2023/02/08 03:31:14;;;;;;;27.40;19.57;;;;;;;;;;4991223;28;20225;-86
2023/02/08 03:33:52;;;;;;;29.63;20.63;;;;;;;;;;4993183;28;20332;-86
2023/02/08 03:36:31;;;;;;;29.60;18.73;;;;;;;;;;4958727;28;20233;-85
2023/02/08 03:38:58;;;;;;;25.23;19.00;;;;;;;;;;4988496;28;20233;-85
2023/02/08 03:41:31;;;;;;;28.63;18.83;;;;;;;;;;4961668;28;20229;-84
2023/02/08 03:44:10;;;;;;;25.63;19.17;;;;;;;;;;4934603;28;20225;-86
2023/02/08 03:46:41;;;;;;;29.33;19.47;;;;;;;;;;4968031;28;20268;-84
2023/02/08 03:49:15;;;;;;;25.03;17.97;;;;;;;;;;4967470;28;20252;-84
2023/02/08 03:51:41;;;;;;;30.17;18.87;;;;;;;;;;4966908;28;20284;-85
2023/02/08 03:54:10;;;;;;;26.60;19.27;;;;;;;;;;4939720;28;20638;-86
2023/02/08 03:56:44;;;;;;;28.60;20.23;;;;;;;;;;4976325;28;20226;-84
2023/02/08 03:59:16;;;;;;;29.13;19.60;;;;;;;;;;4959761;28;20260;-87
2023/02/08 04:01:44;;;;;;;31.47;19.23;;;;;;;;;;4984574;28;20244;-85
2023/02/08 04:04:12;;;;;;;27.43;18.43;;;;;;;;;;4973489;28;20248;-84
2023/02/08 04:06:38;;;;;;;29.27;18.63;;;;;;;;;;4935082;28;20225;-84
2023/02/08 04:09:05;;;;;;;29.87;19.60;;;;;;;;;;4956303;28;20225;-84
2023/02/08 04:11:33;;;;;;;26.97;19.50;;;;;;;;;;4980382;28;20710;-84
2023/02/08 04:13:59;;;;;;;30.53;19.37;;;;;;;;;;4964826;28;20233;-84
2023/02/08 04:16:26;;;;;;;31.73;18.90;;;;;;;;;;4948642;28;20705;-85
2023/02/08 04:18:52;;;;;;;26.47;18.63;;;;;;;;;;4972773;28;20217;-85
2023/02/08 04:21:17;;;;;;;26.47;18.53;;;;;;;;;;4947454;28;20221;-83
2023/02/08 04:23:43;;;;;;;29.73;19.70;;;;;;;;;;4959576;28;21220;-84
2023/02/08 04:26:08;;;;;;;27.00;18.67;;;;;;;;;;4965201;28;20218;-84
2023/02/08 04:28:37;;;;;;;28.27;18.27;;;;;;;;;;4962308;28;20232;-82
2023/02/08 04:31:02;;;;;;;30.50;19.47;;;;;;;;;;4954015;28;20296;-83
2023/02/08 04:33:31;;;;;;;27.40;18.37;;;;;;;;;;4971974;28;20226;-83
2023/02/08 04:35:59;;;;;;;28.53;18.70;;;;;;;;;;4988203;28;20234;-85
2023/02/08 04:38:27;;;;;;;28.20;20.10;;;;;;;;;;4978509;28;20276;-85
2023/02/08 04:40:53;;;;;;;27.50;19.57;;;;;;;;;;4971273;28;20271;-84
2023/02/08 04:43:20;;;;;;;27.17;18.70;;;;;;;;;;4950908;28;20984;-83
2023/02/08 04:45:47;;;;;;;28.03;18.50;;;;;;;;;;4943192;28;20229;-85
2023/02/08 04:48:13;;;;;;;29.83;19.00;;;;;;;;;;4975025;28;20233;-84
2023/02/08 04:50:40;;;;;;;30.87;19.70;;;;;;;;;;4953097;28;20236;-83
2023/02/08 04:53:08;;;;;;;27.83;18.53;;;;;;;;;;4969970;28;20236;-84
2023/02/08 04:55:34;;;;;;;23.13;17.90;;;;;;;;;;4973660;28;20726;-84
2023/02/08 04:57:59;;;;;;;28.73;19.20;;;;;;;;;;4960831;28;20229;-83
2023/02/08 05:00:28;;;;;;;27.90;18.70;;;;;;;;;;4959124;28;20236;-83
2023/02/08 05:02:54;;;;;;;28.47;18.40;;;;;;;;;;4958531;28;20230;-83
2023/02/08 05:05:19;;;;;;;27.57;19.40;;;;;;;;;;4972901;28;20228;-84
2023/02/08 05:07:45;;;;;;;32.00;20.00;;;;;;;;;;4977865;28;20233;-85
2023/02/08 05:10:10;;;;;;;31.37;20.30;;;;;;;;;;4960182;28;20277;-84
2023/02/08 05:12:36;;;;;;;30.57;20.80;;;;;;;;;;4984572;28;20232;-82
2023/02/08 05:15:08;;;;;;;24.70;18.50;;;;;;;;;;4984780;28;20226;-85
2023/02/08 05:17:34;;;;;;;28.83;19.60;;;;;;;;;;4976437;28;20232;-84
2023/02/08 05:20:04;;;;;;;33.20;19.97;;;;;;;;;;4987198;28;20613;-84
2023/02/08 05:22:31;;;;;;;29.47;19.70;;;;;;;;;;4958933;28;20213;-84
2023/02/08 05:24:56;;;;;;;31.83;19.67;;;;;;;;;;4986526;28;20240;-84
2023/02/08 05:27:24;;;;;;;31.07;20.73;;;;;;;;;;4971436;28;20217;-86
2023/02/08 05:29:50;;;;;;;31.80;20.97;;;;;;;;;;4970410;28;21016;-84
2023/02/08 05:32:16;;;;;;;28.60;19.90;;;;;;;;;;4961776;28;20234;-85
2023/02/08 05:34:44;;;;;;;28.53;19.30;;;;;;;;;;4974821;28;20289;-85
2023/02/08 05:37:16;;;;;;;30.60;20.83;;;;;;;;;;4971171;28;20234;-84
2023/02/08 05:39:44;;;;;;;30.73;20.00;;;;;;;;;;4979638;28;20299;-83
2023/02/08 05:42:09;;;;;;;30.03;20.00;;;;;;;;;;4986341;28;20233;-81
2023/02/08 05:44:38;;;;;;;32.07;21.50;;;;;;;;;;4998507;28;20237;-83
2023/02/08 05:47:06;;;;;;;29.27;20.53;;;;;;;;;;4970464;28;20947;-82
2023/02/08 05:49:31;;;;;;;31.67;21.20;;;;;;;;;;4954601;28;20329;-84
2023/02/08 05:52:02;;;;;;;29.40;19.57;;;;;;;;;;4954660;28;20225;-83
2023/02/08 05:54:27;;;;;;;32.37;20.73;;;;;;;;;;4967906;28;20726;-83
2023/02/08 05:56:55;;;;;;;30.07;20.70;;;;;;;;;;4955813;28;21044;-85
2023/02/08 05:59:25;;;;;;;31.27;22.27;;;;;;;;;;4974632;28;20233;-83
2023/02/08 06:01:51;;;;;;;32.67;21.50;;;;;;;;;;5002766;28;20592;-85
2023/02/08 06:04:19;;;;;;;35.27;23.87;;;;;;;;;;4988248;28;20229;-84
2023/02/08 06:06:49;;;;;;;33.57;22.80;;;;;;;;;;4951522;28;20230;-84
2023/02/08 06:09:15;;;;;;;35.43;23.13;;;;;;;;;;4988579;28;20229;-83
2023/02/08 06:11:45;;;;;;;36.50;22.93;;;;;;;;;;4973064;28;20234;-84
2023/02/08 06:14:10;;;;;;;39.17;23.63;;;;;;;;;;4960376;28;20682;-83
2023/02/08 06:16:36;;;;;;;35.87;22.57;;;;;;;;;;4958042;28;20233;-85
2023/02/08 06:19:02;;;;;;;39.47;24.67;;;;;;;;;;4982207;28;20750;-85
2023/02/08 06:21:30;;;;;;;34.40;23.47;;;;;;;;;;4951817;28;20229;-85
2023/02/08 06:23:57;;;;;;;37.73;23.27;;;;;;;;;;4963167;28;20231;-86
2023/02/08 06:26:23;;;;;;;35.87;24.87;;;;;;;;;;4941448;28;20218;-85
2023/02/08 06:28:51;;;;;;;36.63;24.73;;;;;;;;;;4975895;28;20305;-86
2023/02/08 06:31:19;;;;;;;36.53;24.07;;;;;;;;;;5004809;28;20308;-87
2023/02/08 06:33:45;;;;;;;34.77;24.60;;;;;;;;;;4943784;28;20221;-87
2023/02/08 06:36:12;;;;;;;39.27;25.07;;;;;;;;;;4961066;28;20584;-86
2023/02/08 06:38:38;;;;;;;37.23;25.20;;;;;;;;;;4975211;28;20222;-84
2023/02/08 06:41:06;;;;;;;38.90;24.60;;;;;;;;;;4987478;28;20237;-83
2023/02/08 06:43:31;;;;;;;39.33;25.97;;;;;;;;;;4978412;28;20678;-85
2023/02/08 06:46:07;;;;;;;37.20;24.67;;;;;;;;;;4970471;28;20228;-86
2023/02/08 06:48:35;;;;;;;34.77;23.07;;;;;;;;;;4944207;28;20214;-84
2023/02/08 06:51:01;;;;;;;36.83;23.97;;;;;;;;;;4977308;28;20217;-82
2023/02/08 06:53:29;;;;;;;36.67;25.00;;;;;;;;;;4943415;28;20224;-83
2023/02/08 06:55:54;;;;;;;35.97;23.27;;;;;;;;;;4946101;28;20452;-86
2023/02/08 06:58:22;;;;;;;34.23;23.50;;;;;;;;;;4960560;28;20213;-86
2023/02/08 07:00:48;;;;;;;36.53;23.37;;;;;;;;;;4953533;28;20232;-86
2023/02/08 07:03:13;;;;;;;35.57;23.73;;;;;;;;;;4980466;28;20233;-83
2023/02/08 07:05:39;;;;;;;33.27;22.93;;;;;;;;;;4970835;28;20279;-86
2023/02/08 07:08:05;;;;;;;33.57;22.97;;;;;;;;;;4958875;28;20258;-86
2023/02/08 07:10:30;;;;;;;32.90;22.33;;;;;;;;;;4987341;28;20231;-86
2023/02/08 07:13:01;;;;;;;31.97;23.40;;;;;;;;;;4963243;28;20232;-85
2023/02/08 07:15:31;;;;;;;30.87;20.80;;;;;;;;;;4969414;28;20217;-86
2023/02/08 07:18:02;;;;;;;40.13;23.30;;;;;;;;;;4944868;28;20237;-86
2023/02/08 07:20:27;;;;;;;35.30;22.80;;;;;;;;;;4947582;28;20252;-85
2023/02/08 07:22:53;;;;;;;36.53;23.33;;;;;;;;;;4973374;28;20907;-86
2023/02/08 07:25:21;;;;;;;34.77;22.87;;;;;;;;;;4972067;28;20532;-87
2023/02/08 07:27:47;;;;;;;33.17;21.37;;;;;;;;;;4979244;28;20214;-85
2023/02/08 07:30:14;;;;;;;34.70;23.03;;;;;;;;;;4986164;28;20220;-85
2023/02/08 07:32:40;;;;;;;32.47;22.87;;;;;;;;;;4983981;28;20217;-86
2023/02/08 07:35:09;;;;;;;36.17;23.13;;;;;;;;;;4958339;28;20221;-87
2023/02/08 07:37:37;;;;;;;34.70;23.70;;;;;;;;;;4967927;28;20218;-85
2023/02/08 07:40:10;;;;;;;33.43;22.63;;;;;;;;;;4979023;28;20222;-84
2023/02/08 07:42:36;;;;;;;38.90;24.27;;;;;;;;;;4987758;28;20242;-85
2023/02/08 07:45:15;;;;;;;35.07;22.30;;;;;;;;;;4974175;28;20249;-86
2023/02/08 07:47:41;;;;;;;36.87;24.20;;;;;;;;;;4990994;28;20218;-86
2023/02/08 07:50:09;;;;;;;33.07;23.33;;;;;;;;;;4979542;28;20262;-87
2023/02/08 07:52:35;;;;;;;37.33;25.97;;;;;;;;;;4964254;28;20224;-85
2023/02/08 07:55:03;;;;;;;34.40;23.57;;;;;;;;;;4983082;28;20263;-87
2023/02/08 07:57:28;;;;;;;32.67;24.10;;;;;;;;;;4995966;28;20225;-85
2023/02/08 07:59:58;;;;;;;33.70;24.50;;;;;;;;;;4984364;28;20221;-84
2023/02/08 08:02:24;;;;;;;33.87;24.40;;;;;;;;;;4960347;28;20266;-86
2023/02/08 08:04:52;;;;;;;39.57;26.83;;;;;;;;;;4977548;28;20233;-84
2023/02/08 08:07:18;;;;;;;31.93;23.10;;;;;;;;;;4976777;28;20757;-84
2023/02/08 08:09:43;;;;;;;38.37;26.67;;;;;;;;;;4978135;28;20233;-86
2023/02/08 08:12:09;;;;;;;37.83;26.30;;;;;;;;;;4965084;28;20269;-84
2023/02/08 08:14:35;;;;;;;38.67;25.53;;;;;;;;;;4964450;28;20298;-86
2023/02/08 08:17:02;;;;;;;37.40;25.93;;;;;;;;;;4966259;28;20218;-83
2023/02/08 08:19:30;;;;;;;38.03;26.43;;;;;;;;;;4981403;28;20225;-85
2023/02/08 08:21:55;;;;;;;35.73;25.13;;;;;;;;;;4965181;28;20229;-85
2023/02/08 08:24:21;;;;;;;42.10;24.83;;;;;;;;;;4994480;28;20233;-84
2023/02/08 08:26:51;;;;;;;38.10;25.70;;;;;;;;;;4974691;28;20217;-83
2023/02/08 08:29:17;;;;;;;36.27;24.80;;;;;;;;;;4980763;28;20232;-84
2023/02/08 08:31:46;;;;;;;38.03;26.77;;;;;;;;;;5012564;28;20206;-84
2023/02/08 08:34:11;;;;;;;41.43;26.30;;;;;;;;;;4994581;28;20223;-83
2023/02/08 08:36:39;;;;;;;35.70;24.27;;;;;;;;;;4954434;28;20281;-83
2023/02/08 08:39:07;;;;;;;36.30;24.63;;;;;;;;;;4961397;28;20233;-84
2023/02/08 08:41:34;;;;;;;34.87;23.33;;;;;;;;;;4983205;28;20224;-83
2023/02/08 08:43:59;;;;;;;35.07;24.73;;;;;;;;;;4973448;28;20753;-83
2023/02/08 08:46:27;;;;;;;38.20;26.70;;;;;;;;;;4994992;28;20222;-83
2023/02/08 08:48:57;;;;;;;35.10;24.10;;;;;;;;;;4958794;28;20314;-84
2023/02/08 08:51:23;;;;;;;36.93;24.43;;;;;;;;;;4947413;28;20244;-84
2023/02/08 08:53:51;;;;;;;36.07;23.80;;;;;;;;;;4977600;28;20227;-84
2023/02/08 08:56:18;;;;;;;34.93;24.93;;;;;;;;;;4975885;28;20218;-83
2023/02/08 08:58:44;;;;;;;31.00;23.17;;;;;;;;;;4971789;28;20220;-83
2023/02/08 09:01:09;;;;;;;32.37;23.77;;;;;;;;;;4964422;28;20222;-85
2023/02/08 09:03:35;;;;;;;31.40;23.67;;;;;;;;;;5000741;28;20240;-84
2023/02/08 09:06:03;;;;;;;31.60;22.07;;;;;;;;;;4960577;28;20217;-84
2023/02/08 09:08:28;;;;;;;30.67;22.57;;;;;;;;;;5006847;28;20221;-83
2023/02/08 09:10:54;;;;;;;33.70;21.90;;;;;;;;;;4972626;28;20210;-85
2023/02/08 09:13:22;;;;;;;29.07;21.93;;;;;;;;;;4952448;28;20242;-83
2023/02/08 09:15:50;;;;;;;24.50;21.30;;;;;;;;;;4972541;28;20257;-82
2023/02/08 09:18:15;;;;;;;26.20;20.53;;;;;;;;;;4992510;28;20299;-82
2023/02/08 09:20:45;;;;;;;25.70;20.77;;;;;;;;;;4983198;28;20289;-83
2023/02/08 09:23:11;;;;;;;26.77;20.20;;;;;;;;;;4987327;28;20229;-83
2023/02/08 09:25:37;;;;;;;25.43;20.17;;;;;;;;;;4960571;28;20275;-84
2023/02/08 09:28:03;;;;;;;29.37;20.80;;;;;;;;;;4991337;28;20241;-82
2023/02/08 09:30:30;;;;;;;23.83;18.70;;;;;;;;;;4987292;28;20222;-83
2023/02/08 09:32:56;;;;;;;24.37;18.97;;;;;;;;;;4983139;28;20222;-83
2023/02/08 09:35:26;;;;;;;27.20;19.40;;;;;;;;;;4951366;28;20229;-84
2023/02/08 09:37:54;;;;;;;23.07;18.37;;;;;;;;;;4962860;28;20218;-85
2023/02/08 09:40:36;;;;;;;23.47;18.20;;;;;;;;;;4988952;28;20231;-84
2023/02/08 09:43:30;;;;;;;22.63;17.33;;;;;;;;;;4990894;28;20237;-83
2023/02/08 09:46:04;;;;;;;22.40;17.33;;;;;;;;;;5017465;28;20221;-83
2023/02/08 09:48:37;;;;;;;21.30;17.33;;;;;;;;;;4975357;28;20228;-83
2023/02/08 09:51:02;;;;;;;22.13;17.03;;;;;;;;;;5001583;28;20225;-84
2023/02/08 09:54:03;;;;;;;26.17;17.67;;;;;;;;;;5006895;28;20228;-82
2023/02/08 09:56:39;;;;;;;23.03;16.97;;;;;;;;;;4979433;28;20253;-83
2023/02/08 09:59:05;;;;;;;22.27;16.57;;;;;;;;;;4996038;28;20252;-84
2023/02/08 10:01:34;;;;;;;21.33;16.97;;;;;;;;;;4995593;28;20225;-81
2023/02/08 10:04:21;;;;;;;25.27;18.23;;;;;;;;;;4973372;28;20217;-83
2023/02/08 10:06:46;;;;;;;21.57;16.67;;;;;;;;;;4975158;28;20237;-85
2023/02/08 10:09:13;;;;;;;21.97;17.80;;;;;;;;;;4952560;28;20226;-83
2023/02/08 10:11:42;;;;;;;22.60;17.23;;;;;;;;;;4975027;28;20313;-84
2023/02/08 10:14:16;;;;;;;19.63;16.67;;;;;;;;;;5021429;28;20233;-82
2023/02/08 10:16:44;;;;;;;20.90;16.47;;;;;;;;;;5007854;28;20229;-83
2023/02/08 10:19:23;;;;;;;19.07;16.33;;;;;;;;;;5004315;28;20328;-83
2023/02/08 10:22:07;;;;;;;26.40;16.53;;;;;;;;;;5005660;28;20226;-84
2023/02/08 10:24:41;;;;;;;23.20;16.20;;;;;;;;;;4997928;28;20273;-83
2023/02/08 10:27:29;;;;;;;20.33;17.43;;;;;;;;;;5008859;28;20233;-82
2023/02/08 10:30:19;;;;;;;19.60;15.80;;;;;;;;;;4988819;28;20229;-83
2023/02/08 10:32:54;;;;;;;21.80;15.77;;;;;;;;;;5000050;28;20225;-83
2023/02/08 10:35:36;;;;;;;16.37;14.63;;;;;;;;;;4977439;28;20227;-83
2023/02/08 10:38:20;;;;;;;17.47;14.23;;;;;;;;;;5008185;28;20296;-82
2023/02/08 10:40:47;;;;;;;21.87;15.87;;;;;;;;;;4992575;28;20317;-84
2023/02/08 10:43:20;;;;;;;18.13;14.10;;;;;;;;;;4975460;28;20230;-83
2023/02/08 10:45:48;;;;;;;19.80;16.07;;;;;;;;;;5005692;28;21044;-82
2023/02/08 10:48:17;;;;;;;19.87;14.87;;;;;;;;;;4953519;28;20222;-83
2023/02/08 10:50:46;;;;;;;19.20;14.63;;;;;;;;;;4973974;28;20224;-84
2023/02/08 10:53:19;;;;;;;24.50;14.60;;;;;;;;;;4991333;28;20217;-83
2023/02/08 10:55:45;;;;;;;17.53;14.13;;;;;;;;;;4956584;28;20998;-84
2023/02/08 10:58:19;;;;;;;18.87;13.33;;;;;;;;;;4957185;28;20326;-83
2023/02/08 11:00:44;;;;;;;18.97;13.83;;;;;;;;;;4974338;28;20223;-83
2023/02/08 11:03:23;;;;;;;13.67;12.17;;;;;;;;;;4973579;28;20237;-82
2023/02/08 11:05:49;;;;;;;15.70;12.80;;;;;;;;;;4973046;28;20254;-84
2023/02/08 11:08:18;;;;;;;14.30;12.20;;;;;;;;;;4998236;28;20230;-83
2023/02/08 11:11:01;;;;;;;16.93;12.73;;;;;;;;;;4969121;28;20225;-82
2023/02/08 11:13:37;;;;;;;15.07;12.63;;;;;;;;;;5006682;28;20221;-82
2023/02/08 11:16:04;;;;;;;14.57;11.93;;;;;;;;;;4971076;28;20264;-83
2023/02/08 11:18:38;;;;;;;16.23;11.67;;;;;;;;;;4973344;28;20268;-83
2023/02/08 11:21:09;;;;;;;14.47;12.00;;;;;;;;;;4972758;28;20222;-83
2023/02/08 11:23:41;;;;;;;17.50;11.67;;;;;;;;;;4953139;28;20229;-82
2023/02/08 11:26:23;;;;;;;13.27;10.77;;;;;;;;;;4974422;28;20588;-84
2023/02/08 11:28:59;;;;;;;12.30;9.67;;;;;;;;;;5000387;28;20228;-83
2023/02/08 11:31:27;;;;;;;11.77;9.50;;;;;;;;;;4982636;28;20221;-83
2023/02/08 11:34:02;;;;;;;12.20;9.30;;;;;;;;;;4990929;28;20217;-83
2023/02/08 11:36:28;;;;;;;12.17;9.93;;;;;;;;;;4998689;28;20739;-82
2023/02/08 11:38:54;;;;;;;11.63;9.27;;;;;;;;;;5012723;28;20225;-82
2023/02/08 11:41:22;;;;;;;10.50;8.90;;;;;;;;;;4967669;28;20317;-83
2023/02/08 11:43:58;;;;;;;11.77;9.40;;;;;;;;;;4965754;28;20285;-81
2023/02/08 11:46:25;;;;;;;12.53;8.17;;;;;;;;;;5040009;28;20232;-84
2023/02/08 11:48:51;;;;;;;10.07;9.07;;;;;;;;;;4976145;28;20236;-83
2023/02/08 11:51:27;;;;;;;9.83;8.40;;;;;;;;;;4982256;28;20284;-83
2023/02/08 11:53:52;;;;;;;8.90;7.97;;;;;;;;;;4997742;28;20225;-83
2023/02/08 11:56:28;;;;;;;11.87;8.73;;;;;;;;;;4968638;28;20221;-85
2023/02/08 11:59:09;;;;;;;9.10;8.20;;;;;;;;;;4961443;28;20632;-84
2023/02/08 12:01:36;;;;;;;11.93;8.90;;;;;;;;;;4979291;28;20225;-84
2023/02/08 12:04:04;;;;;;;10.83;8.60;;;;;;;;;;4965713;28;20214;-83
2023/02/08 12:07:12;;;;;;;8.70;7.47;;;;;;;;;;4961944;28;20254;-85
2023/02/08 12:09:46;;;;;;;9.97;8.03;;;;;;;;;;4966826;28;20228;-83
2023/02/08 12:12:20;;;;;;;10.57;7.60;;;;;;;;;;4969454;28;20591;-83
2023/02/08 12:15:34;;;;;;;9.60;7.67;;;;;;;;;;4989898;28;20239;-82
2023/02/08 12:18:10;;;;;;;8.30;7.50;;;;;;;;;;4977553;28;20230;-84
2023/02/08 12:20:44;;;;;;;7.87;6.60;;;;;;;;;;4990524;28;20225;-84
2023/02/08 12:23:21;;;;;;;8.17;7.00;;;;;;;;;;4965619;28;20312;-84
2023/02/08 12:26:01;;;;;;;9.37;6.93;;;;;;;;;;4968665;28;20241;-85
2023/02/08 12:28:42;;;;;;;7.57;6.43;;;;;;;;;;5006211;28;20729;-85
2023/02/08 12:31:35;;;;;;;7.83;6.93;;;;;;;;;;5020194;28;20222;-82
2023/02/08 12:34:21;;;;;;;9.53;7.10;;;;;;;;;;4983146;28;20229;-83
2023/02/08 12:43:13;;;;;;;13.60;7.80;;;;;;;;;;5006597;28;20225;-83
2023/02/08 12:46:04;;;;;;;7.57;6.50;;;;;;;;;;4987910;28;20229;-82
2023/02/08 12:48:45;;;;;;;9.00;7.07;;;;;;;;;;4949215;28;20247;-84
2023/02/08 12:51:29;;;;;;;7.90;6.97;;;;;;;;;;4986604;28;20231;-84
2023/02/08 12:53:58;;;;;;;7.47;6.10;;;;;;;;;;4988430;28;20325;-81
2023/02/08 12:56:30;;;;;;;7.17;5.60;;;;;;;;;;4962746;28;20736;-83
2023/02/08 12:59:02;;;;;;;6.77;5.77;;;;;;;;;;5002710;28;20217;-80
2023/02/08 13:01:36;;;;;;;7.07;5.50;;;;;;;;;;4989512;28;20234;-80
2023/02/08 13:04:47;;;;;;;6.53;5.87;;;;;;;;;;4985899;28;20248;-81
2023/02/08 13:07:18;;;;;;;9.87;5.70;;;;;;;;;;4968594;28;20225;-83
2023/02/08 13:09:58;;;;;;;6.27;5.30;;;;;;;;;;4975252;28;20625;-83
2023/02/08 13:12:29;;;;;;;7.13;5.50;;;;;;;;;;4988528;28;20241;-84
2023/02/08 13:15:27;;;;;;;6.93;5.10;;;;;;;;;;4952358;28;20233;-83
2023/02/08 13:17:54;;;;;;;5.47;4.80;;;;;;;;;;4975105;28;20262;-82
2023/02/08 13:20:45;;;;;;;6.20;4.97;;;;;;;;;;5008701;28;20213;-83
2023/02/08 13:23:21;;;;;;;7.20;5.27;;;;;;;;;;5001427;28;20864;-82
2023/02/08 13:25:47;;;;;;;7.57;4.87;;;;;;;;;;5006777;28;20218;-84
2023/02/08 13:28:23;;;;;;;6.03;5.00;;;;;;;;;;4957364;28;20225;-83
2023/02/08 13:31:08;;;;;;;7.73;4.67;;;;;;;;;;4963715;28;20225;-84
2023/02/08 13:33:39;;;;;;;6.90;4.90;;;;;;;;;;5010790;28;20256;-84
2023/02/08 13:36:05;;;;;;;9.07;4.70;;;;;;;;;;4974684;28;20241;-82
2023/02/08 13:38:34;;;;;;;6.00;4.70;;;;;;;;;;4951570;28;20241;-82
2023/02/08 13:41:03;;;;;;;5.20;4.10;;;;;;;;;;4973161;28;20304;-83
2023/02/08 13:43:38;;;;;;;4.77;4.27;;;;;;;;;;5019038;28;20227;-84
2023/02/08 13:46:06;;;;;;;6.63;4.93;;;;;;;;;;4955939;28;20225;-85
2023/02/08 13:49:00;;;;;;;7.47;4.70;;;;;;;;;;4986102;28;20283;-83
2023/02/08 13:51:31;;;;;;;5.00;4.17;;;;;;;;;;4991483;28;20229;-80
2023/02/08 13:53:57;;;;;;;6.63;4.20;;;;;;;;;;4998774;28;20225;-81
2023/02/08 13:56:39;;;;;;;6.50;4.40;;;;;;;;;;5031442;28;21319;-82
2023/02/08 13:59:32;;;;;;;5.70;4.13;;;;;;;;;;5001627;28;21038;-83
2023/02/08 14:02:21;;;;;;;3.77;3.20;;;;;;;;;;5009822;28;20226;-84
2023/02/08 14:04:50;;;;;;;4.47;3.77;;;;;;;;;;5006612;28;20248;-84
2023/02/08 14:07:39;;;;;;;4.90;4.03;;;;;;;;;;4974698;28;20226;-84
2023/02/08 14:10:07;;;;;;;4.97;4.10;;;;;;;;;;4987182;28;20245;-85
2023/02/08 14:13:02;;;;;;;6.67;4.07;;;;;;;;;;5020631;28;20225;-84
2023/02/08 14:15:31;;;;;;;3.77;3.20;;;;;;;;;;4989501;28;20282;-83
2023/02/08 14:17:58;;;;;;;4.50;4.10;;;;;;;;;;5000669;28;20222;-84
2023/02/08 14:20:38;;;;;;;4.57;3.67;;;;;;;;;;5006045;28;20226;-82
2023/02/08 14:23:29;;;;;;;3.93;3.17;;;;;;;;;;4949920;28;20698;-84
2023/02/08 14:26:02;;;;;;;5.73;3.83;;;;;;;;;;4973476;28;20226;-83
2023/02/08 14:28:40;;;;;;;4.90;3.70;;;;;;;;;;4983667;28;20229;-83
2023/02/08 14:31:07;;;;;;;5.33;4.03;;;;;;;;;;4958318;28;20229;-82
2023/02/08 14:33:35;;;;;;;6.00;3.80;;;;;;;;;;4974051;28;20225;-84
2023/02/08 14:36:03;;;;;;;5.57;3.83;;;;;;;;;;4989883;28;20773;-85
2023/02/08 14:39:06;;;;;;;4.87;3.90;;;;;;;;;;5009254;28;20761;-84
2023/02/08 14:41:53;;;;;;;4.67;3.47;;;;;;;;;;5025412;28;20320;-82
2023/02/08 14:44:40;;;;;;;4.57;3.73;;;;;;;;;;4953321;28;20218;-82
2023/02/08 14:47:24;;;;;;;5.90;4.53;;;;;;;;;;4992135;28;20229;-83
2023/02/08 14:49:51;;;;;;;5.40;4.33;;;;;;;;;;5001919;28;20245;-83
2023/02/08 14:52:20;;;;;;;4.90;4.37;;;;;;;;;;5007795;28;20248;-85